Time;durP1;ratioP1;P1;durP2;ratioP2;P2;SDS_P1;SDS_P2;PMS_P1;PMS_P2;Temp;Humidity;BMP_temperature;BMP_pressure;BME280_temperature;BME280_humidity;BME280_pressure;Samples;Min_cycle;Max_cycle;Signal;HPM_P1;HPM_P2
2021/09/02 00:00:04;;;;;;;;;;;14.70;99.90;;;;;;1859357;76;20154;-69
2021/09/02 00:02:30;;;;;;;;;;;14.80;99.90;;;;;;1859287;77;20160;-68
2021/09/02 00:04:57;;;;;;;;;;;14.80;99.90;;;;;;1858165;76;20173;-68
2021/09/02 00:07:24;;;;;;;;;;;14.80;99.90;;;;;;1859539;77;20154;-68
2021/09/02 00:09:51;;;;;;;;;;;14.90;99.90;;;;;;1859609;76;20134;-68
2021/09/02 00:12:18;;;;;;;;;;;14.80;99.90;;;;;;1859688;77;20161;-68
2021/09/02 00:14:44;;;;;;;;;;;14.80;99.90;;;;;;1858969;76;20147;-68
2021/09/02 00:17:11;;;;;;;;;;;14.70;99.90;;;;;;1859358;76;20383;-68
2021/09/02 00:19:38;;;;;;;;;;;14.70;99.90;;;;;;1859860;77;20229;-68
2021/09/02 00:22:05;;;;;;;;;;;14.70;99.90;;;;;;1859664;76;20134;-69
2021/09/02 00:24:32;;;;;;;;;;;14.60;99.90;;;;;;1859726;76;20173;-68
2021/09/02 00:26:59;;;;;;;;;;;14.50;99.90;;;;;;1859272;76;20178;-68
2021/09/02 00:29:26;;;;;;;;;;;14.40;99.90;;;;;;1859721;77;20229;-68
2021/09/02 00:31:52;;;;;;;;;;;14.40;99.90;;;;;;1859191;76;20229;-68
2021/09/02 00:34:19;;;;;;;;;;;14.30;99.90;;;;;;1859342;76;20129;-68
2021/09/02 00:36:46;;;;;;;;;;;14.30;99.90;;;;;;1859336;76;20202;-68
2021/09/02 00:39:13;;;;;;;;;;;14.30;99.90;;;;;;1859833;77;20150;-68
2021/09/02 00:41:40;;;;;;;;;;;14.30;99.90;;;;;;1853306;76;21247;-68
2021/09/02 00:44:07;;;;;;;;;;;14.30;99.90;;;;;;1857443;76;20210;-68
2021/09/02 00:46:33;;;;;;;;;;;14.30;99.90;;;;;;1859617;76;20221;-68
2021/09/02 00:49:00;;;;;;;;;;;14.20;99.90;;;;;;1854397;76;20237;-69
2021/09/02 00:51:27;;;;;;;;;;;14.20;99.90;;;;;;1843827;76;20205;-69
2021/09/02 00:53:55;;;;;;;;;;;14.20;99.90;;;;;;1858253;76;20675;-69
2021/09/02 00:56:23;;;;;;;;;;;14.20;99.90;;;;;;1859631;76;20466;-69
2021/09/02 00:58:50;;;;;;;;;;;14.30;99.90;;;;;;1859302;76;20186;-68
2021/09/02 01:01:17;;;;;;;;;;;14.20;99.90;;;;;;1857145;76;20186;-69
2021/09/02 01:03:44;;;;;;;;;;;14.20;99.90;;;;;;1846327;76;20130;-69
2021/09/02 01:06:11;;;;;;;;;;;14.20;99.90;;;;;;1859462;76;20177;-69
2021/09/02 01:08:38;;;;;;;;;;;14.20;99.90;;;;;;1847710;76;20444;-68
2021/09/02 01:11:05;;;;;;;;;;;14.20;99.90;;;;;;1838625;76;20513;-69
2021/09/02 01:13:31;;;;;;;;;;;14.10;99.90;;;;;;1859744;77;20182;-68
2021/09/02 01:15:58;;;;;;;;;;;14.00;99.90;;;;;;1859389;76;20154;-68
2021/09/02 01:18:25;;;;;;;;;;;14.00;99.90;;;;;;1859756;77;20229;-68
2021/09/02 01:20:52;;;;;;;;;;;13.90;99.90;;;;;;1858918;76;20199;-68
2021/09/02 01:23:19;;;;;;;;;;;13.80;99.90;;;;;;1859675;77;20439;-69
2021/09/02 01:25:46;;;;;;;;;;;13.80;99.90;;;;;;1857895;76;20146;-69
2021/09/02 01:28:14;;;;;;;;;;;13.90;99.90;;;;;;1859554;77;20193;-68
2021/09/02 01:30:41;;;;;;;;;;;13.80;99.90;;;;;;1858802;76;20185;-68
2021/09/02 01:33:08;;;;;;;;;;;13.90;99.90;;;;;;1829229;78;20168;-68
2021/09/02 01:35:35;;;;;;;;;;;13.80;99.90;;;;;;1847852;76;20256;-68
2021/09/02 01:38:04;;;;;;;;;;;13.80;99.90;;;;;;1859575;76;20447;-69
2021/09/02 01:40:31;;;;;;;;;;;13.90;99.90;;;;;;1859258;76;20130;-69
2021/09/02 01:42:59;;;;;;;;;;;13.90;99.90;;;;;;1859387;76;20209;-68
2021/09/02 01:45:26;;;;;;;;;;;13.90;99.90;;;;;;1858791;76;20209;-68
2021/09/02 01:47:54;;;;;;;;;;;13.90;99.90;;;;;;1859308;76;20150;-68
2021/09/02 01:50:22;;;;;;;;;;;13.90;99.90;;;;;;1859676;77;20495;-68
2021/09/02 01:52:50;;;;;;;;;;;13.90;99.90;;;;;;1836563;76;20414;-68
2021/09/02 01:55:17;;;;;;;;;;;13.80;99.90;;;;;;1859513;76;20221;-68
2021/09/02 01:57:43;;;;;;;;;;;13.80;99.90;;;;;;1858156;76;20154;-68
2021/09/02 02:00:12;;;;;;;;;;;13.80;99.90;;;;;;1859574;76;20231;-68
2021/09/02 02:02:39;;;;;;;;;;;13.80;99.90;;;;;;1859290;77;20181;-68
2021/09/02 02:05:06;;;;;;;;;;;13.70;99.90;;;;;;1859207;76;20221;-68
2021/09/02 02:07:34;;;;;;;;;;;13.60;99.90;;;;;;1859202;76;20261;-68
2021/09/02 02:10:01;;;;;;;;;;;13.70;99.90;;;;;;1859809;77;20209;-68
2021/09/02 02:12:28;;;;;;;;;;;13.70;99.90;;;;;;1859146;76;20131;-69
2021/09/02 02:14:54;;;;;;;;;;;13.70;99.90;;;;;;1859379;76;20199;-69
2021/09/02 02:17:21;;;;;;;;;;;13.60;99.90;;;;;;1858161;76;20220;-69
2021/09/02 02:19:48;;;;;;;;;;;13.60;99.90;;;;;;1859381;76;20135;-69
2021/09/02 02:22:15;;;;;;;;;;;13.60;99.90;;;;;;1859319;77;20475;-68
2021/09/02 02:24:42;;;;;;;;;;;13.50;99.90;;;;;;1859353;76;20154;-68
2021/09/02 02:27:09;;;;;;;;;;;13.70;99.90;;;;;;1859772;77;21218;-68
2021/09/02 02:29:35;;;;;;;;;;;13.60;99.90;;;;;;1859248;76;20144;-68
2021/09/02 02:32:02;;;;;;;;;;;13.70;99.90;;;;;;1859935;77;20142;-68
2021/09/02 02:34:30;;;;;;;;;;;13.60;99.90;;;;;;1859355;76;20209;-68
2021/09/02 02:36:57;;;;;;;;;;;13.70;99.90;;;;;;1859835;77;20189;-69
2021/09/02 02:39:24;;;;;;;;;;;13.60;99.90;;;;;;1858379;76;20174;-69
2021/09/02 02:41:51;;;;;;;;;;;13.60;99.90;;;;;;1849054;76;20235;-69
2021/09/02 02:44:17;;;;;;;;;;;13.60;99.90;;;;;;1858893;76;20260;-69
2021/09/02 02:46:44;;;;;;;;;;;13.50;99.90;;;;;;1854900;77;20134;-69
2021/09/02 02:49:11;;;;;;;;;;;13.50;99.90;;;;;;1859586;76;20232;-68
2021/09/02 02:51:38;;;;;;;;;;;13.50;99.90;;;;;;1858509;76;20200;-68
2021/09/02 02:54:05;;;;;;;;;;;13.50;99.90;;;;;;1859624;77;20186;-68
2021/09/02 02:56:31;;;;;;;;;;;13.50;99.90;;;;;;1859324;76;20193;-67
2021/09/02 02:58:58;;;;;;;;;;;13.40;99.90;;;;;;1859820;77;20135;-68
2021/09/02 03:01:25;;;;;;;;;;;13.40;99.90;;;;;;1864038;76;20112;-68
2021/09/02 03:03:52;;;;;;;;;;;13.30;99.90;;;;;;1859426;76;20202;-68
2021/09/02 03:06:19;;;;;;;;;;;13.40;99.90;;;;;;1859109;76;20154;-69
2021/09/02 03:08:45;;;;;;;;;;;13.30;99.90;;;;;;1859676;77;20197;-68
2021/09/02 03:11:12;;;;;;;;;;;13.40;99.90;;;;;;1858674;76;20231;-68
2021/09/02 03:13:40;;;;;;;;;;;13.40;99.90;;;;;;1859858;77;20156;-67
2021/09/02 03:16:07;;;;;;;;;;;13.40;99.90;;;;;;1846109;76;20140;-68
2021/09/02 03:18:34;;;;;;;;;;;13.40;99.90;;;;;;1847054;77;20207;-68
2021/09/02 03:21:01;;;;;;;;;;;13.30;99.90;;;;;;1859450;76;20220;-68
2021/09/02 03:23:28;;;;;;;;;;;13.30;99.90;;;;;;1859164;76;20274;-68
2021/09/02 03:25:55;;;;;;;;;;;13.20;99.90;;;;;;1859100;76;20198;-68
2021/09/02 03:28:22;;;;;;;;;;;13.20;99.90;;;;;;1859236;76;20150;-68
2021/09/02 03:30:48;;;;;;;;;;;13.20;99.90;;;;;;1859699;77;20498;-68
2021/09/02 03:33:15;;;;;;;;;;;13.20;99.90;;;;;;1859151;76;20154;-68
2021/09/02 03:35:42;;;;;;;;;;;13.30;99.90;;;;;;1859325;76;20280;-67
2021/09/02 03:38:09;;;;;;;;;;;13.30;99.90;;;;;;1859067;76;20501;-68
2021/09/02 03:40:36;;;;;;;;;;;13.30;99.90;;;;;;1858007;76;20201;-68
2021/09/02 03:43:03;;;;;;;;;;;13.20;99.90;;;;;;1859767;77;20186;-68
2021/09/02 03:45:30;;;;;;;;;;;13.10;99.90;;;;;;1859092;76;20151;-68
2021/09/02 03:47:56;;;;;;;;;;;13.10;99.90;;;;;;1859668;77;20193;-68
2021/09/02 03:50:23;;;;;;;;;;;13.10;99.90;;;;;;1859118;76;20248;-68
2021/09/02 03:52:50;;;;;;;;;;;13.00;99.90;;;;;;1859727;77;20181;-69
2021/09/02 03:55:17;;;;;;;;;;;13.00;99.90;;;;;;1859109;76;20189;-69
2021/09/02 03:57:44;;;;;;;;;;;12.90;99.90;;;;;;1858577;76;20151;-69
2021/09/02 04:00:12;;;;;;;;;;;12.90;99.90;;;;;;1859774;77;20142;-69
2021/09/02 04:02:39;;;;;;;;;;;13.00;99.90;;;;;;1858572;76;20154;-68
2021/09/02 04:05:06;;;;;;;;;;;13.10;99.90;;;;;;1859140;76;20115;-68
2021/09/02 04:07:34;;;;;;;;;;;13.00;99.90;;;;;;1859692;77;20205;-68
2021/09/02 04:10:00;;;;;;;;;;;12.90;99.90;;;;;;1859016;76;20111;-68
2021/09/02 04:12:27;;;;;;;;;;;12.90;99.90;;;;;;1829117;78;20433;-68
2021/09/02 04:14:54;;;;;;;;;;;12.80;99.90;;;;;;1841266;76;20210;-68
2021/09/02 04:17:21;;;;;;;;;;;12.90;99.90;;;;;;1859404;77;20479;-68
2021/09/02 04:19:47;;;;;;;;;;;12.80;99.90;;;;;;1859280;76;20248;-69
2021/09/02 04:22:14;;;;;;;;;;;12.90;99.90;;;;;;1859868;77;20399;-68
2021/09/02 04:24:41;;;;;;;;;;;12.80;99.90;;;;;;1859333;76;20201;-68
2021/09/02 04:27:11;;;;;;;;;;;13.00;99.90;;;;;;1858113;76;20193;-68
2021/09/02 04:29:36;;;;;;;;;;;13.00;99.90;;;;;;1859443;76;20197;-68
2021/09/02 04:32:03;;;;;;;;;;;12.80;99.90;;;;;;1859767;77;20204;-68
2021/09/02 04:34:30;;;;;;;;;;;12.80;99.90;;;;;;1859051;76;20170;-69
2021/09/02 04:36:57;;;;;;;;;;;12.70;99.90;;;;;;1859559;77;20189;-69
2021/09/02 04:39:24;;;;;;;;;;;12.80;99.90;;;;;;1859612;76;20166;-68
2021/09/02 04:41:51;;;;;;;;;;;12.80;99.90;;;;;;1859837;77;20290;-68
2021/09/02 04:44:17;;;;;;;;;;;12.60;99.90;;;;;;1859052;76;20162;-68
2021/09/02 04:46:44;;;;;;;;;;;12.80;99.90;;;;;;1859471;76;20198;-68
2021/09/02 04:49:11;;;;;;;;;;;12.80;99.90;;;;;;1859905;77;20220;-69
2021/09/02 04:51:38;;;;;;;;;;;12.90;99.90;;;;;;1857818;76;20165;-68
2021/09/02 04:54:04;;;;;;;;;;;13.00;99.90;;;;;;1859105;77;20478;-69
2021/09/02 04:56:31;;;;;;;;;;;12.90;99.90;;;;;;1858362;76;20260;-69
2021/09/02 04:58:58;;;;;;;;;;;12.90;99.90;;;;;;1859603;76;20494;-68
2021/09/02 05:01:25;;;;;;;;;;;12.90;99.90;;;;;;1859293;76;20189;-68
2021/09/02 05:03:52;;;;;;;;;;;12.90;99.90;;;;;;1864192;76;20432;-68
2021/09/02 05:06:18;;;;;;;;;;;12.70;99.90;;;;;;1859083;76;20198;-68
2021/09/02 05:08:45;;;;;;;;;;;12.70;99.90;;;;;;1859795;77;20446;-68
2021/09/02 05:11:12;;;;;;;;;;;12.70;99.90;;;;;;1859338;76;20206;-67
2021/09/02 05:13:39;;;;;;;;;;;12.70;99.90;;;;;;1859666;77;20186;-68
2021/09/02 05:16:06;;;;;;;;;;;12.80;99.90;;;;;;1859186;76;20146;-68
2021/09/02 05:18:32;;;;;;;;;;;12.80;99.90;;;;;;1848081;76;20186;-68
2021/09/02 05:20:59;;;;;;;;;;;12.70;99.90;;;;;;1859358;76;20209;-68
2021/09/02 05:23:26;;;;;;;;;;;12.80;99.90;;;;;;1857986;77;20445;-68
2021/09/02 05:25:53;;;;;;;;;;;12.80;99.90;;;;;;1845627;76;20196;-68
2021/09/02 05:28:20;;;;;;;;;;;12.80;99.90;;;;;;1822600;77;20129;-68
2021/09/02 05:30:46;;;;;;;;;;;12.80;99.90;;;;;;1859165;76;20221;-68
2021/09/02 05:33:13;;;;;;;;;;;12.90;99.90;;;;;;1859613;77;20185;-68
2021/09/02 05:35:40;;;;;;;;;;;13.00;99.90;;;;;;1858730;76;20197;-69
2021/09/02 05:38:08;;;;;;;;;;;13.10;99.90;;;;;;1859735;77;20317;-68
2021/09/02 05:40:35;;;;;;;;;;;13.10;99.90;;;;;;1859370;76;20186;-68
2021/09/02 05:43:02;;;;;;;;;;;13.30;99.90;;;;;;1859850;77;20119;-68
2021/09/02 05:45:29;;;;;;;;;;;13.30;99.90;;;;;;1858657;76;20143;-68
2021/09/02 05:47:55;;;;;;;;;;;13.30;99.90;;;;;;1859160;77;20222;-69
2021/09/02 05:50:22;;;;;;;;;;;13.30;99.90;;;;;;1858835;76;20407;-67
2021/09/02 05:52:49;;;;;;;;;;;13.40;99.90;;;;;;1858265;77;20342;-67
2021/09/02 05:55:16;;;;;;;;;;;13.60;99.90;;;;;;1856293;76;20503;-68
2021/09/02 05:57:43;;;;;;;;;;;13.60;99.90;;;;;;1857572;76;20154;-67
2021/09/02 06:00:11;;;;;;;;;;;13.70;99.90;;;;;;1858180;76;20248;-67
2021/09/02 06:02:38;;;;;;;;;;;13.90;99.90;;;;;;1856908;76;20217;-67
2021/09/02 06:05:06;;;;;;;;;;;14.10;99.90;;;;;;1859447;76;20454;-67
2021/09/02 06:07:33;;;;;;;;;;;14.20;99.90;;;;;;1859174;77;20126;-67
2021/09/02 06:09:59;;;;;;;;;;;14.20;99.90;;;;;;1859823;77;20494;-67
2021/09/02 06:12:26;;;;;;;;;;;14.30;99.90;;;;;;1857531;76;20188;-67
2021/09/02 06:14:53;;;;;;;;;;;14.40;99.90;;;;;;1852753;76;20150;-67
2021/09/02 06:17:20;;;;;;;;;;;14.40;99.90;;;;;;1857164;76;20487;-67
2021/09/02 06:19:47;;;;;;;;;;;14.50;99.90;;;;;;1858838;76;20162;-68
2021/09/02 06:22:13;;;;;;;;;;;14.50;99.90;;;;;;1857247;76;20497;-67
2021/09/02 06:24:40;;;;;;;;;;;14.60;99.90;;;;;;1856303;76;20169;-67
2021/09/02 06:27:07;;;;;;;;;;;14.70;99.90;;;;;;1857233;76;20483;-67
2021/09/02 06:29:34;;;;;;;;;;;14.70;99.90;;;;;;1855928;76;20208;-67
2021/09/02 06:32:02;;;;;;;;;;;14.70;99.90;;;;;;1857162;76;20494;-68
2021/09/02 06:34:29;;;;;;;;;;;14.80;99.90;;;;;;1859422;76;20204;-68
2021/09/02 06:36:55;;;;;;;;;;;14.80;99.90;;;;;;1858893;77;20130;-67
2021/09/02 06:39:22;;;;;;;;;;;14.90;99.90;;;;;;1858300;77;20181;-67
2021/09/02 06:41:49;;;;;;;;;;;15.00;99.90;;;;;;1856289;77;20279;-68
2021/09/02 06:44:16;;;;;;;;;;;15.00;99.90;;;;;;1856689;76;20130;-68
2021/09/02 06:46:43;;;;;;;;;;;15.00;99.90;;;;;;1850913;77;20286;-67
2021/09/02 06:49:09;;;;;;;;;;;14.90;99.90;;;;;;1855420;77;20130;-67
2021/09/02 06:51:37;;;;;;;;;;;15.00;99.90;;;;;;1843130;77;20246;-67
2021/09/02 06:54:04;;;;;;;;;;;14.90;99.90;;;;;;1837571;77;20395;-68
2021/09/02 06:56:31;;;;;;;;;;;15.00;99.90;;;;;;1841769;76;20185;-68
2021/09/02 06:58:58;;;;;;;;;;;15.00;99.90;;;;;;1848123;76;20423;-68
2021/09/02 07:01:25;;;;;;;;;;;15.00;99.90;;;;;;1855117;76;20184;-67
2021/09/02 07:03:52;;;;;;;;;;;15.10;99.90;;;;;;1852083;76;20186;-67
2021/09/02 07:06:18;;;;;;;;;;;15.10;99.90;;;;;;1854999;76;20115;-68
2021/09/02 07:08:45;;;;;;;;;;;15.10;99.90;;;;;;1856601;76;20227;-67
2021/09/02 07:11:12;;;;;;;;;;;15.10;99.90;;;;;;1855751;76;20178;-68
2021/09/02 07:13:39;;;;;;;;;;;15.10;99.90;;;;;;1858745;76;20353;-68
2021/09/02 07:16:06;;;;;;;;;;;15.20;99.90;;;;;;1858293;76;20522;-67
2021/09/02 07:18:32;;;;;;;;;;;15.20;99.90;;;;;;1857302;77;20201;-67
2021/09/02 07:20:59;;;;;;;;;;;15.10;99.90;;;;;;1859129;77;20200;-67
2021/09/02 07:23:26;;;;;;;;;;;15.20;99.90;;;;;;1874328;76;20222;-68
2021/09/02 07:25:53;;;;;;;;;;;15.30;99.90;;;;;;1857608;76;20258;-69
2021/09/02 07:28:20;;;;;;;;;;;15.30;99.90;;;;;;1854465;76;20185;-69
2021/09/02 07:30:46;;;;;;;;;;;15.40;99.90;;;;;;1870208;76;20137;-69
2021/09/02 07:33:13;;;;;;;;;;;15.40;99.90;;;;;;1859615;76;20160;-68
2021/09/02 07:35:40;;;;;;;;;;;15.50;99.90;;;;;;1868173;76;20219;-69
2021/09/02 07:38:07;;;;;;;;;;;15.60;99.90;;;;;;1858827;76;20217;-69
2021/09/02 07:40:34;;;;;;;;;;;15.60;99.90;;;;;;1860077;77;20161;-69
2021/09/02 07:43:01;;;;;;;;;;;15.70;99.90;;;;;;1859609;77;20152;-69
2021/09/02 07:45:28;;;;;;;;;;;15.80;99.90;;;;;;1859585;76;20184;-71
2021/09/02 07:47:55;;;;;;;;;;;15.90;99.90;;;;;;1858593;77;20156;-68
2021/09/02 07:50:22;;;;;;;;;;;15.90;99.90;;;;;;1858084;77;20239;-68
2021/09/02 07:52:49;;;;;;;;;;;16.00;99.90;;;;;;1859636;77;20169;-68
2021/09/02 07:55:15;;;;;;;;;;;16.00;99.90;;;;;;1859528;76;20126;-68
2021/09/02 07:57:47;;;;;;;;;;;16.00;99.90;;;;;;1859460;77;20176;-68
2021/09/02 08:00:11;;;;;;;;;;;16.10;99.90;;;;;;1857317;77;20501;-68
2021/09/02 08:02:38;;;;;;;;;;;16.10;99.90;;;;;;1855058;77;20146;-68
2021/09/02 08:05:05;;;;;;;;;;;16.20;99.90;;;;;;1854064;76;20596;-68
2021/09/02 08:07:32;;;;;;;;;;;16.30;99.90;;;;;;1854418;77;20197;-68
2021/09/02 08:09:59;;;;;;;;;;;16.40;99.90;;;;;;1857630;77;20241;-68
2021/09/02 08:12:26;;;;;;;;;;;16.40;99.90;;;;;;1866843;76;20154;-68
2021/09/02 08:14:52;;;;;;;;;;;16.40;99.90;;;;;;1844494;77;20218;-68
2021/09/02 08:17:19;;;;;;;;;;;16.40;99.90;;;;;;1841228;76;20196;-68
2021/09/02 08:19:46;;;;;;;;;;;16.50;99.90;;;;;;1858543;76;20135;-69
2021/09/02 08:22:13;;;;;;;;;;;16.50;99.90;;;;;;1839595;77;20198;-69
2021/09/02 08:24:39;;;;;;;;;;;16.50;99.90;;;;;;1856853;76;20213;-68
2021/09/02 08:27:06;;;;;;;;;;;16.50;99.90;;;;;;1858796;76;20228;-68
2021/09/02 08:29:33;;;;;;;;;;;16.50;99.90;;;;;;1855557;76;20212;-68
2021/09/02 08:32:00;;;;;;;;;;;16.60;99.90;;;;;;1839698;76;20119;-68
2021/09/02 08:34:27;;;;;;;;;;;16.60;99.90;;;;;;1848547;76;20181;-68
2021/09/02 08:36:53;;;;;;;;;;;16.60;99.90;;;;;;1859343;77;20181;-68
2021/09/02 08:39:20;;;;;;;;;;;16.70;99.90;;;;;;1859166;76;20147;-68
2021/09/02 08:41:47;;;;;;;;;;;16.70;99.90;;;;;;1859831;77;20227;-68
2021/09/02 08:44:14;;;;;;;;;;;16.70;99.90;;;;;;1859422;76;20129;-69
2021/09/02 08:46:42;;;;;;;;;;;16.70;99.90;;;;;;1856781;76;20170;-68
2021/09/02 08:49:10;;;;;;;;;;;16.70;99.90;;;;;;1857223;76;20149;-68
2021/09/02 08:51:36;;;;;;;;;;;16.80;99.90;;;;;;1858569;76;20202;-68
2021/09/02 08:54:04;;;;;;;;;;;16.70;99.90;;;;;;1858401;76;20201;-68
2021/09/02 08:56:31;;;;;;;;;;;16.90;99.90;;;;;;1859389;76;20217;-68
2021/09/02 08:58:58;;;;;;;;;;;16.90;99.90;;;;;;1848992;76;20256;-68
2021/09/02 09:01:25;;;;;;;;;;;16.90;99.90;;;;;;1846992;76;20268;-69
2021/09/02 09:03:52;;;;;;;;;;;16.90;99.90;;;;;;1852039;76;20478;-68
2021/09/02 09:06:23;;;;;;;;;;;17.10;99.90;;;;;;1845003;74;20458;-68
2021/09/02 09:08:50;;;;;;;;;;;17.10;99.90;;;;;;1858440;76;20185;-70
2021/09/02 09:11:18;;;;;;;;;;;17.00;99.90;;;;;;1859660;77;20162;-69
2021/09/02 09:13:45;;;;;;;;;;;17.00;99.90;;;;;;1850994;77;20125;-69
2021/09/02 09:16:12;;;;;;;;;;;17.10;99.90;;;;;;1877644;74;20187;-71
2021/09/02 09:18:44;;;;;;;;;;;17.10;99.90;;;;;;1893160;74;20124;-72
2021/09/02 09:21:12;;;;;;;;;;;17.00;99.90;;;;;;1893222;74;20182;-71
2021/09/02 09:23:52;;;;;;;;;;;17.10;99.90;;;;;;1893733;76;20108;-71
2021/09/02 09:26:19;;;;;;;;;;;17.10;99.90;;;;;;1890819;74;20465;-71
2021/09/02 09:28:46;;;;;;;;;;;17.10;99.90;;;;;;1858301;76;20502;-71
2021/09/02 09:31:26;;;;;;;;;;;17.10;99.90;;;;;;1857831;76;20204;-71
2021/09/02 09:33:54;;;;;;;;;;;17.20;99.90;;;;;;1852746;76;20479;-70
2021/09/02 09:36:22;;;;;;;;;;;17.40;99.90;;;;;;1856512;76;20481;-70
2021/09/02 09:39:03;;;;;;;;;;;17.50;99.90;;;;;;1857520;76;20232;-71
2021/09/02 09:41:31;;;;;;;;;;;17.50;99.90;;;;;;1855830;76;20165;-70
2021/09/02 09:44:16;;;;;;;;;;;17.50;99.90;;;;;;1852210;77;20122;-70
2021/09/02 09:46:43;;;;;;;;;;;17.50;99.90;;;;;;1855683;77;20591;-70
2021/09/02 09:49:10;;;;;;;;;;;17.50;99.90;;;;;;1857033;76;20109;-70
2021/09/02 09:51:36;;;;;;;;;;;17.50;99.90;;;;;;1898548;75;20181;-70
2021/09/02 09:54:03;;;;;;;;;;;17.50;99.90;;;;;;1911288;75;20178;-70
2021/09/02 09:56:31;;;;;;;;;;;17.50;99.90;;;;;;1866520;75;20396;-69
2021/09/02 09:58:57;;;;;;;;;;;17.50;99.90;;;;;;1824190;79;20432;-70
2021/09/02 10:01:26;;;;;;;;;;;17.60;99.90;;;;;;1862106;77;20130;-69
2021/09/02 10:03:53;;;;;;;;;;;17.60;99.90;;;;;;1861775;75;20500;-70
2021/09/02 10:06:21;;;;;;;;;;;17.60;99.90;;;;;;1855353;75;20210;-70
2021/09/02 10:08:48;;;;;;;;;;;17.70;99.90;;;;;;1864471;75;20123;-70
2021/09/02 10:11:16;;;;;;;;;;;17.90;99.90;;;;;;1900855;75;20596;-71
2021/09/02 10:13:44;;;;;;;;;;;18.10;99.90;;;;;;1900617;75;20471;-70
2021/09/02 10:16:11;;;;;;;;;;;18.10;99.90;;;;;;1899905;74;20157;-70
2021/09/02 10:18:39;;;;;;;;;;;18.10;99.90;;;;;;1873652;75;20170;-71
2021/09/02 10:21:07;;;;;;;;;;;18.10;99.90;;;;;;1867468;77;20233;-70
2021/09/02 10:23:35;;;;;;;;;;;18.10;99.90;;;;;;1861521;77;20211;-72
2021/09/02 10:26:02;;;;;;;;;;;18.00;99.90;;;;;;1861225;76;20161;-71
2021/09/02 10:28:35;;;;;;;;;;;17.90;99.90;;;;;;1862000;77;20126;-71
2021/09/02 10:31:03;;;;;;;;;;;17.90;99.90;;;;;;1861672;77;20173;-71
2021/09/02 10:33:44;;;;;;;;;;;17.90;99.90;;;;;;1868180;77;20435;-71
2021/09/02 10:36:12;;;;;;;;;;;18.00;99.90;;;;;;1868221;75;20199;-70
2021/09/02 10:38:40;;;;;;;;;;;18.00;99.90;;;;;;1863668;77;20110;-71
2021/09/02 10:41:07;;;;;;;;;;;17.90;99.90;;;;;;1868486;77;20180;-71
2021/09/02 10:43:53;;;;;;;;;;;17.90;99.90;;;;;;1868802;77;20188;-72
2021/09/02 10:46:28;;;;;;;;;;;17.90;99.90;;;;;;1852908;75;20225;-72
2021/09/02 10:48:55;;;;;;;;;;;18.00;99.90;;;;;;1836226;78;20116;-71
2021/09/02 10:51:36;;;;;;;;;;;17.90;99.90;;;;;;1851825;75;20173;-71
2021/09/02 10:54:07;;;;;;;;;;;18.00;99.90;;;;;;1865854;77;20188;-70
2021/09/02 10:56:35;;;;;;;;;;;18.00;99.90;;;;;;1877182;76;20179;-70
2021/09/02 10:59:03;;;;;;;;;;;18.10;99.90;;;;;;1837658;77;20204;-72
2021/09/02 11:01:31;;;;;;;;;;;18.10;99.90;;;;;;1831870;78;20122;-71
2021/09/02 11:04:03;;;;;;;;;;;18.10;99.90;;;;;;1830879;76;20835;-72
2021/09/02 11:06:27;;;;;;;;;;;18.10;99.90;;;;;;1856565;76;20202;-71
2021/09/02 11:08:54;;;;;;;;;;;18.20;99.90;;;;;;1856790;77;20456;-71
2021/09/02 11:11:22;;;;;;;;;;;18.20;99.90;;;;;;1856807;77;20116;-71
2021/09/02 11:13:51;;;;;;;;;;;18.30;99.90;;;;;;1865972;76;20112;-71
2021/09/02 11:16:19;;;;;;;;;;;18.30;99.90;;;;;;1875247;75;20182;-70
2021/09/02 11:18:47;;;;;;;;;;;18.40;99.90;;;;;;1889276;75;20141;-70
2021/09/02 11:21:15;;;;;;;;;;;18.50;99.90;;;;;;1875663;75;20423;-70
2021/09/02 11:23:45;;;;;;;;;;;18.50;99.90;;;;;;1844858;77;20416;-70
2021/09/02 11:26:12;;;;;;;;;;;18.50;99.90;;;;;;1883188;74;20171;-72
2021/09/02 11:28:48;;;;;;;;;;;18.50;99.90;;;;;;1832338;77;20494;-73
2021/09/02 11:31:15;;;;;;;;;;;18.50;99.90;;;;;;1862657;75;20541;-72
2021/09/02 11:33:49;;;;;;;;;;;18.50;99.90;;;;;;1884538;75;20115;-72
2021/09/02 11:36:16;;;;;;;;;;;18.50;99.90;;;;;;1893142;75;20183;-70
2021/09/02 11:38:45;;;;;;;;;;;18.50;99.90;;;;;;1897379;75;20475;-72
2021/09/02 11:41:20;;;;;;;;;;;18.50;99.90;;;;;;1874189;75;20179;-73
2021/09/02 11:43:47;;;;;;;;;;;18.50;99.90;;;;;;1868008;77;20145;-74
2021/09/02 11:46:15;;;;;;;;;;;18.50;99.90;;;;;;1868259;75;20181;-73
2021/09/02 11:48:53;;;;;;;;;;;18.40;99.90;;;;;;1883544;75;20169;-73
2021/09/02 11:51:21;;;;;;;;;;;18.50;99.90;;;;;;1873647;75;20279;-72
2021/09/02 11:53:48;;;;;;;;;;;18.40;99.90;;;;;;1840007;77;20456;-73
2021/09/02 11:56:21;;;;;;;;;;;18.50;99.90;;;;;;1852366;77;20126;-74
2021/09/02 11:58:49;;;;;;;;;;;18.50;99.90;;;;;;1861753;77;20173;-72
2021/09/02 12:01:16;;;;;;;;;;;18.70;99.90;;;;;;1862435;77;20180;-73
2021/09/02 12:03:44;;;;;;;;;;;18.80;99.90;;;;;;1868473;77;20174;-73
2021/09/02 12:06:11;;;;;;;;;;;18.90;99.90;;;;;;1844397;75;20162;-74
2021/09/02 12:08:38;;;;;;;;;;;19.10;99.90;;;;;;1835904;78;20186;-72
2021/09/02 12:11:05;;;;;;;;;;;19.50;99.90;;;;;;1839261;75;20123;-74
2021/09/02 12:13:35;;;;;;;;;;;19.80;99.90;;;;;;1836169;78;20164;-75
2021/09/02 12:16:04;;;;;;;;;;;20.10;99.90;;;;;;1859796;75;20219;-75
2021/09/02 12:18:31;;;;;;;;;;;20.60;99.90;;;;;;1869173;77;20474;-75
2021/09/02 12:21:08;;;;;;;;;;;20.30;99.90;;;;;;1875206;75;20848;-76
2021/09/02 12:23:43;;;;;;;;;;;19.90;99.90;;;;;;1898886;75;20115;-74
2021/09/02 12:26:10;;;;;;;;;;;19.80;99.90;;;;;;1889390;74;20502;-74
2021/09/02 12:28:41;;;;;;;;;;;19.80;99.90;;;;;;1863449;75;20162;-75
2021/09/02 12:31:28;;;;;;;;;;;20.10;99.90;;;;;;1875487;75;20450;-75
2021/09/02 12:34:05;;;;;;;;;;;20.50;99.90;;;;;;1869473;75;20173;-75
2021/09/02 12:36:33;;;;;;;;;;;20.70;99.90;;;;;;1873179;75;20125;-76
2021/09/02 12:39:13;;;;;;;;;;;21.10;99.90;;;;;;1876958;76;20482;-75
2021/09/02 12:41:41;;;;;;;;;;;21.40;99.90;;;;;;1842801;76;20333;-76
2021/09/02 12:44:12;;;;;;;;;;;21.70;99.90;;;;;;1845549;76;20119;-74
2021/09/02 12:46:55;;;;;;;;;;;21.90;99.90;;;;;;1842755;76;20219;-74
2021/09/02 12:49:24;;;;;;;;;;;22.00;99.90;;;;;;1835936;77;20126;-74
2021/09/02 12:51:58;;;;;;;;;;;21.90;99.90;;;;;;1907577;75;20126;-76
2021/09/02 12:54:25;;;;;;;;;;;21.30;99.90;;;;;;1911049;74;20165;-74
2021/09/02 12:56:52;;;;;;;;;;;20.90;99.90;;;;;;1902796;75;20190;-73
2021/09/02 12:59:19;;;;;;;;;;;20.90;99.90;;;;;;1903117;75;20177;-75
2021/09/02 13:01:46;;;;;;;;;;;21.20;99.90;;;;;;1905887;75;20173;-73
2021/09/02 13:04:12;;;;;;;;;;;21.10;99.90;;;;;;1890845;75;20139;-73
2021/09/02 13:06:39;;;;;;;;;;;21.00;99.90;;;;;;1878200;76;20217;-74
2021/09/02 13:09:06;;;;;;;;;;;20.80;99.90;;;;;;1909160;75;20448;-74
2021/09/02 13:11:34;;;;;;;;;;;20.50;99.90;;;;;;1903591;75;20114;-75
2021/09/02 13:14:01;;;;;;;;;;;20.30;99.90;;;;;;1909278;75;20165;-74
2021/09/02 13:16:28;;;;;;;;;;;20.20;99.90;;;;;;1842549;78;20227;-73
2021/09/02 13:18:56;;;;;;;;;;;20.10;99.90;;;;;;1855121;76;20121;-73
2021/09/02 13:21:24;;;;;;;;;;;20.10;99.90;;;;;;1848313;76;20182;-73
2021/09/02 13:23:51;;;;;;;;;;;20.10;99.90;;;;;;1845529;78;20545;-74
2021/09/02 13:26:18;;;;;;;;;;;20.00;99.90;;;;;;1847521;77;20252;-74
2021/09/02 13:28:45;;;;;;;;;;;19.90;99.90;;;;;;1846364;76;20149;-73
2021/09/02 13:31:12;;;;;;;;;;;19.90;99.90;;;;;;1835917;76;20513;-74
2021/09/02 13:33:39;;;;;;;;;;;20.20;99.90;;;;;;1855283;76;20124;-73
2021/09/02 13:36:06;;;;;;;;;;;20.80;99.90;;;;;;1830723;78;20178;-73
2021/09/02 13:38:35;;;;;;;;;;;21.20;99.90;;;;;;1838791;76;20256;-74
2021/09/02 13:41:01;;;;;;;;;;;21.60;99.90;;;;;;1881693;75;20124;-73
2021/09/02 13:43:28;;;;;;;;;;;21.60;99.90;;;;;;1885100;75;20471;-74
2021/09/02 13:45:55;;;;;;;;;;;21.60;99.90;;;;;;1880130;75;20120;-73
2021/09/02 13:48:22;;;;;;;;;;;21.70;99.90;;;;;;1882386;75;20741;-75
2021/09/02 13:50:48;;;;;;;;;;;22.20;99.90;;;;;;1843650;78;20189;-73
2021/09/02 13:53:15;;;;;;;;;;;22.20;99.90;;;;;;1885745;75;20110;-73
2021/09/02 13:55:42;;;;;;;;;;;22.20;99.90;;;;;;1905223;74;20153;-74
2021/09/02 13:58:10;;;;;;;;;;;22.30;99.90;;;;;;1891238;75;20116;-73
2021/09/02 14:00:38;;;;;;;;;;;22.10;99.90;;;;;;1866000;75;20238;-73
2021/09/02 14:03:05;;;;;;;;;;;22.20;99.90;;;;;;1885155;75;20489;-76
2021/09/02 14:05:32;;;;;;;;;;;21.90;99.90;;;;;;1896264;74;20130;-72
2021/09/02 14:07:58;;;;;;;;;;;21.80;99.90;;;;;;1890822;74;20246;-73
2021/09/02 14:10:25;;;;;;;;;;;21.70;99.90;;;;;;1886670;75;20167;-73
2021/09/02 14:12:52;;;;;;;;;;;22.00;99.90;;;;;;1892339;75;20126;-72
2021/09/02 14:15:19;;;;;;;;;;;22.20;99.90;;;;;;1867572;77;20217;-73
2021/09/02 14:17:46;;;;;;;;;;;22.30;99.90;;;;;;1882916;75;20125;-73